sensor_id;sensor_type;location;lat;lon;timestamp;P1;durP1;ratioP1;P2;durP2;ratioP2
2326;SDS011;1174;51.588;7.328;2024-03-22T04:01:43;16.90;;;9.17;;
2326;SDS011;1174;51.588;7.328;2024-03-22T04:04:10;17.80;;;9.57;;
2326;SDS011;1174;51.588;7.328;2024-03-22T04:06:36;14.10;;;8.37;;
2326;SDS011;1174;51.588;7.328;2024-03-22T04:09:02;32.53;;;9.20;;
2326;SDS011;1174;51.588;7.328;2024-03-22T04:11:28;20.17;;;8.00;;
2326;SDS011;1174;51.588;7.328;2024-03-22T04:13:55;13.90;;;7.43;;
2326;SDS011;1174;51.588;7.328;2024-03-22T04:16:21;16.03;;;7.80;;
2326;SDS011;1174;51.588;7.328;2024-03-22T04:18:49;19.77;;;9.30;;
2326;SDS011;1174;51.588;7.328;2024-03-22T04:21:15;16.47;;;8.70;;
2326;SDS011;1174;51.588;7.328;2024-03-22T04:23:41;18.70;;;7.97;;
2326;SDS011;1174;51.588;7.328;2024-03-22T04:26:07;20.27;;;8.93;;
2326;SDS011;1174;51.588;7.328;2024-03-22T04:28:34;20.80;;;8.90;;
2326;SDS011;1174;51.588;7.328;2024-03-22T04:31:00;12.93;;;7.03;;
2326;SDS011;1174;51.588;7.328;2024-03-22T04:33:28;27.13;;;9.97;;
2326;SDS011;1174;51.588;7.328;2024-03-22T04:35:56;20.77;;;8.10;;
2326;SDS011;1174;51.588;7.328;2024-03-22T04:38:24;18.93;;;11.97;;
2326;SDS011;1174;51.588;7.328;2024-03-22T04:40:51;18.43;;;9.90;;
2326;SDS011;1174;51.588;7.328;2024-03-22T04:43:19;22.97;;;8.40;;
2326;SDS011;1174;51.588;7.328;2024-03-22T04:45:46;15.77;;;7.20;;
2326;SDS011;1174;51.588;7.328;2024-03-22T04:48:14;19.87;;;9.67;;
2326;SDS011;1174;51.588;7.328;2024-03-22T04:50:42;17.03;;;9.70;;
2326;SDS011;1174;51.588;7.328;2024-03-22T04:53:10;11.40;;;7.20;;
2326;SDS011;1174;51.588;7.328;2024-03-22T04:55:36;8.80;;;5.13;;
2326;SDS011;1174;51.588;7.328;2024-03-22T04:58:03;17.73;;;8.37;;
2326;SDS011;1174;51.588;7.328;2024-03-22T05:00:31;30.27;;;11.80;;
2326;SDS011;1174;51.588;7.328;2024-03-22T05:02:57;15.27;;;8.43;;
2326;SDS011;1174;51.588;7.328;2024-03-22T05:05:24;18.20;;;8.10;;
2326;SDS011;1174;51.588;7.328;2024-03-22T05:07:49;6.57;;;3.93;;
2326;SDS011;1174;51.588;7.328;2024-03-22T05:10:17;8.43;;;4.47;;
2326;SDS011;1174;51.588;7.328;2024-03-22T05:12:43;16.77;;;6.50;;
2326;SDS011;1174;51.588;7.328;2024-03-22T05:15:10;11.53;;;7.03;;
2326;SDS011;1174;51.588;7.328;2024-03-22T05:17:36;19.20;;;8.50;;
2326;SDS011;1174;51.588;7.328;2024-03-22T05:20:04;14.57;;;7.60;;
2326;SDS011;1174;51.588;7.328;2024-03-22T05:22:34;10.40;;;7.00;;
2326;SDS011;1174;51.588;7.328;2024-03-22T05:25:00;9.63;;;7.13;;
2326;SDS011;1174;51.588;7.328;2024-03-22T05:27:28;23.53;;;10.50;;
2326;SDS011;1174;51.588;7.328;2024-03-22T05:29:54;14.20;;;7.10;;
2326;SDS011;1174;51.588;7.328;2024-03-22T05:32:20;12.53;;;7.70;;
2326;SDS011;1174;51.588;7.328;2024-03-22T05:34:47;7.90;;;5.93;;
2326;SDS011;1174;51.588;7.328;2024-03-22T05:37:13;12.20;;;5.50;;
2326;SDS011;1174;51.588;7.328;2024-03-22T05:39:39;7.93;;;5.20;;
2326;SDS011;1174;51.588;7.328;2024-03-22T05:42:05;12.67;;;7.87;;
2326;SDS011;1174;51.588;7.328;2024-03-22T05:44:34;13.70;;;5.70;;
2326;SDS011;1174;51.588;7.328;2024-03-22T05:47:00;8.40;;;5.90;;
2326;SDS011;1174;51.588;7.328;2024-03-22T05:49:27;18.10;;;8.23;;
2326;SDS011;1174;51.588;7.328;2024-03-22T05:51:53;17.90;;;9.00;;
2326;SDS011;1174;51.588;7.328;2024-03-22T05:54:19;16.07;;;9.80;;
2326;SDS011;1174;51.588;7.328;2024-03-22T05:56:45;10.73;;;7.13;;
2326;SDS011;1174;51.588;7.328;2024-03-22T05:59:12;13.33;;;6.37;;
2326;SDS011;1174;51.588;7.328;2024-03-22T06:01:39;5.30;;;3.77;;
2326;SDS011;1174;51.588;7.328;2024-03-22T06:04:06;17.83;;;8.43;;
2326;SDS011;1174;51.588;7.328;2024-03-22T06:06:32;14.23;;;6.60;;
2326;SDS011;1174;51.588;7.328;2024-03-22T06:08:58;9.40;;;5.67;;
2326;SDS011;1174;51.588;7.328;2024-03-22T06:11:27;8.63;;;5.93;;
2326;SDS011;1174;51.588;7.328;2024-03-22T06:13:54;13.50;;;7.80;;
2326;SDS011;1174;51.588;7.328;2024-03-22T06:16:20;6.90;;;5.00;;
2326;SDS011;1174;51.588;7.328;2024-03-22T06:18:48;12.67;;;6.20;;
2326;SDS011;1174;51.588;7.328;2024-03-22T06:21:14;10.50;;;6.27;;
2326;SDS011;1174;51.588;7.328;2024-03-22T06:23:46;6.60;;;5.20;;
2326;SDS011;1174;51.588;7.328;2024-03-22T06:26:13;16.93;;;8.30;;
2326;SDS011;1174;51.588;7.328;2024-03-22T06:28:40;9.57;;;4.63;;
2326;SDS011;1174;51.588;7.328;2024-03-22T06:31:06;9.53;;;5.87;;
2326;SDS011;1174;51.588;7.328;2024-03-22T06:33:33;14.00;;;7.90;;
2326;SDS011;1174;51.588;7.328;2024-03-22T06:36:00;6.57;;;4.23;;
2326;SDS011;1174;51.588;7.328;2024-03-22T06:38:28;8.20;;;5.87;;
2326;SDS011;1174;51.588;7.328;2024-03-22T06:40:53;7.60;;;4.53;;
2326;SDS011;1174;51.588;7.328;2024-03-22T06:43:20;12.80;;;6.93;;
2326;SDS011;1174;51.588;7.328;2024-03-22T06:45:46;12.30;;;6.47;;
2326;SDS011;1174;51.588;7.328;2024-03-22T06:48:13;6.50;;;4.83;;
2326;SDS011;1174;51.588;7.328;2024-03-22T06:50:39;15.47;;;7.50;;
2326;SDS011;1174;51.588;7.328;2024-03-22T06:53:08;17.43;;;7.30;;
2326;SDS011;1174;51.588;7.328;2024-03-22T06:55:35;14.00;;;8.10;;
2326;SDS011;1174;51.588;7.328;2024-03-22T06:58:01;8.70;;;6.40;;
2326;SDS011;1174;51.588;7.328;2024-03-22T07:00:27;13.10;;;6.97;;
2326;SDS011;1174;51.588;7.328;2024-03-22T07:02:54;13.77;;;6.87;;
2326;SDS011;1174;51.588;7.328;2024-03-22T07:05:20;16.70;;;7.83;;
2326;SDS011;1174;51.588;7.328;2024-03-22T07:07:49;12.13;;;6.43;;
2326;SDS011;1174;51.588;7.328;2024-03-22T07:10:16;11.57;;;7.57;;
2326;SDS011;1174;51.588;7.328;2024-03-22T07:12:43;10.43;;;7.70;;
2326;SDS011;1174;51.588;7.328;2024-03-22T07:15:09;5.37;;;4.03;;
2326;SDS011;1174;51.588;7.328;2024-03-22T07:17:36;9.80;;;5.50;;
2326;SDS011;1174;51.588;7.328;2024-03-22T07:20:01;9.77;;;6.53;;
2326;SDS011;1174;51.588;7.328;2024-03-22T07:22:29;11.30;;;5.90;;
2326;SDS011;1174;51.588;7.328;2024-03-22T07:24:55;9.87;;;6.33;;
2326;SDS011;1174;51.588;7.328;2024-03-22T07:27:23;8.23;;;5.43;;
2326;SDS011;1174;51.588;7.328;2024-03-22T07:29:49;15.10;;;7.60;;
2326;SDS011;1174;51.588;7.328;2024-03-22T07:32:15;11.13;;;7.07;;
2326;SDS011;1174;51.588;7.328;2024-03-22T07:34:41;8.87;;;5.87;;
2326;SDS011;1174;51.588;7.328;2024-03-22T07:37:11;16.40;;;8.00;;
2326;SDS011;1174;51.588;7.328;2024-03-22T07:39:37;11.97;;;8.17;;
2326;SDS011;1174;51.588;7.328;2024-03-22T07:42:04;9.37;;;6.70;;
2326;SDS011;1174;51.588;7.328;2024-03-22T07:44:31;9.90;;;5.70;;
2326;SDS011;1174;51.588;7.328;2024-03-22T07:46:58;8.80;;;4.07;;
2326;SDS011;1174;51.588;7.328;2024-03-22T07:49:24;12.30;;;7.23;;
2326;SDS011;1174;51.588;7.328;2024-03-22T07:51:50;14.63;;;8.53;;
2326;SDS011;1174;51.588;7.328;2024-03-22T07:54:18;9.37;;;6.67;;
2326;SDS011;1174;51.588;7.328;2024-03-22T07:56:45;14.47;;;7.87;;
2326;SDS011;1174;51.588;7.328;2024-03-22T07:59:11;14.07;;;8.57;;
2326;SDS011;1174;51.588;7.328;2024-03-22T08:01:39;12.13;;;6.87;;
2326;SDS011;1174;51.588;7.328;2024-03-22T08:04:05;11.07;;;6.43;;
2326;SDS011;1174;51.588;7.328;2024-03-22T08:06:32;10.40;;;8.23;;
2326;SDS011;1174;51.588;7.328;2024-03-22T08:08:57;15.50;;;7.47;;
2326;SDS011;1174;51.588;7.328;2024-03-22T08:11:26;7.87;;;6.17;;
2326;SDS011;1174;51.588;7.328;2024-03-22T08:13:52;11.67;;;7.67;;
2326;SDS011;1174;51.588;7.328;2024-03-22T08:16:26;12.40;;;6.80;;
2326;SDS011;1174;51.588;7.328;2024-03-22T08:18:53;12.50;;;5.90;;
2326;SDS011;1174;51.588;7.328;2024-03-22T08:21:21;3.53;;;2.53;;
2326;SDS011;1174;51.588;7.328;2024-03-22T08:23:47;9.47;;;4.07;;
2326;SDS011;1174;51.588;7.328;2024-03-22T08:26:14;10.17;;;5.00;;
2326;SDS011;1174;51.588;7.328;2024-03-22T08:28:40;10.93;;;7.07;;
2326;SDS011;1174;51.588;7.328;2024-03-22T08:31:07;9.17;;;4.80;;
2326;SDS011;1174;51.588;7.328;2024-03-22T08:33:35;9.47;;;6.03;;
2326;SDS011;1174;51.588;7.328;2024-03-22T08:36:04;20.17;;;6.17;;
2326;SDS011;1174;51.588;7.328;2024-03-22T08:38:30;11.10;;;5.50;;
2326;SDS011;1174;51.588;7.328;2024-03-22T08:40:57;12.00;;;6.33;;
2326;SDS011;1174;51.588;7.328;2024-03-22T08:43:22;14.13;;;5.90;;
2326;SDS011;1174;51.588;7.328;2024-03-22T08:45:50;9.80;;;4.57;;
2326;SDS011;1174;51.588;7.328;2024-03-22T08:48:16;12.03;;;5.33;;
2326;SDS011;1174;51.588;7.328;2024-03-22T08:50:43;8.20;;;6.00;;
2326;SDS011;1174;51.588;7.328;2024-03-22T08:53:11;8.20;;;6.27;;
2326;SDS011;1174;51.588;7.328;2024-03-22T08:55:37;8.17;;;4.60;;
2326;SDS011;1174;51.588;7.328;2024-03-22T08:58:03;6.30;;;4.27;;
2326;SDS011;1174;51.588;7.328;2024-03-22T09:00:30;9.23;;;4.73;;
2326;SDS011;1174;51.588;7.328;2024-03-22T09:02:56;12.53;;;5.07;;
2326;SDS011;1174;51.588;7.328;2024-03-22T09:05:23;13.33;;;6.37;;
2326;SDS011;1174;51.588;7.328;2024-03-22T09:07:49;9.97;;;3.90;;
2326;SDS011;1174;51.588;7.328;2024-03-22T09:10:19;8.70;;;3.80;;
2326;SDS011;1174;51.588;7.328;2024-03-22T09:12:45;15.63;;;5.83;;
2326;SDS011;1174;51.588;7.328;2024-03-22T09:15:11;5.13;;;3.70;;
2326;SDS011;1174;51.588;7.328;2024-03-22T09:17:37;19.07;;;5.37;;
2326;SDS011;1174;51.588;7.328;2024-03-22T09:20:05;12.47;;;6.87;;
2326;SDS011;1174;51.588;7.328;2024-03-22T09:22:32;4.40;;;3.50;;
2326;SDS011;1174;51.588;7.328;2024-03-22T09:25:00;16.63;;;6.67;;
2326;SDS011;1174;51.588;7.328;2024-03-22T09:27:27;7.57;;;4.63;;
2326;SDS011;1174;51.588;7.328;2024-03-22T09:29:54;8.43;;;4.20;;
2326;SDS011;1174;51.588;7.328;2024-03-22T09:32:19;12.97;;;6.00;;
2326;SDS011;1174;51.588;7.328;2024-03-22T09:34:48;9.57;;;5.07;;
2326;SDS011;1174;51.588;7.328;2024-03-22T09:37:15;8.07;;;4.70;;
2326;SDS011;1174;51.588;7.328;2024-03-22T09:39:42;8.00;;;5.00;;
2326;SDS011;1174;51.588;7.328;2024-03-22T09:42:09;10.03;;;5.23;;
2326;SDS011;1174;51.588;7.328;2024-03-22T09:44:46;14.37;;;5.07;;
2326;SDS011;1174;51.588;7.328;2024-03-22T09:47:14;12.83;;;5.80;;
2326;SDS011;1174;51.588;7.328;2024-03-22T09:49:41;6.37;;;4.57;;
2326;SDS011;1174;51.588;7.328;2024-03-22T09:52:11;9.60;;;5.10;;
2326;SDS011;1174;51.588;7.328;2024-03-22T09:54:39;10.03;;;4.73;;
2326;SDS011;1174;51.588;7.328;2024-03-22T09:57:07;10.03;;;4.63;;
2326;SDS011;1174;51.588;7.328;2024-03-22T09:59:37;10.30;;;5.27;;
2326;SDS011;1174;51.588;7.328;2024-03-22T10:02:04;8.20;;;4.47;;
2326;SDS011;1174;51.588;7.328;2024-03-22T10:04:35;5.93;;;4.30;;
2326;SDS011;1174;51.588;7.328;2024-03-22T10:07:01;9.27;;;5.60;;
2326;SDS011;1174;51.588;7.328;2024-03-22T10:09:28;6.90;;;5.20;;
2326;SDS011;1174;51.588;7.328;2024-03-22T10:11:55;9.70;;;6.03;;
2326;SDS011;1174;51.588;7.328;2024-03-22T10:14:22;7.23;;;4.43;;
2326;SDS011;1174;51.588;7.328;2024-03-22T10:16:50;10.03;;;6.40;;
2326;SDS011;1174;51.588;7.328;2024-03-22T10:19:20;9.20;;;3.27;;
2326;SDS011;1174;51.588;7.328;2024-03-22T10:21:47;11.17;;;4.20;;
2326;SDS011;1174;51.588;7.328;2024-03-22T10:24:14;7.93;;;4.60;;
2326;SDS011;1174;51.588;7.328;2024-03-22T10:26:40;9.03;;;4.80;;
2326;SDS011;1174;51.588;7.328;2024-03-22T10:29:07;7.73;;;4.57;;
2326;SDS011;1174;51.588;7.328;2024-03-22T10:31:34;10.93;;;5.20;;
2326;SDS011;1174;51.588;7.328;2024-03-22T10:34:02;10.87;;;5.30;;
2326;SDS011;1174;51.588;7.328;2024-03-22T10:36:30;4.97;;;3.70;;
2326;SDS011;1174;51.588;7.328;2024-03-22T10:38:59;7.37;;;4.27;;
2326;SDS011;1174;51.588;7.328;2024-03-22T10:41:27;9.17;;;4.67;;
2326;SDS011;1174;51.588;7.328;2024-03-22T10:43:54;13.57;;;5.57;;
2326;SDS011;1174;51.588;7.328;2024-03-22T10:46:21;11.70;;;4.40;;
2326;SDS011;1174;51.588;7.328;2024-03-22T10:48:51;11.23;;;4.50;;
2326;SDS011;1174;51.588;7.328;2024-03-22T10:51:18;10.70;;;3.90;;
2326;SDS011;1174;51.588;7.328;2024-03-22T10:53:47;11.13;;;4.60;;
2326;SDS011;1174;51.588;7.328;2024-03-22T10:56:15;6.77;;;4.27;;
2326;SDS011;1174;51.588;7.328;2024-03-22T10:58:42;8.80;;;4.70;;
2326;SDS011;1174;51.588;7.328;2024-03-22T11:01:21;9.70;;;3.60;;
2326;SDS011;1174;51.588;7.328;2024-03-22T11:03:47;5.30;;;3.70;;
2326;SDS011;1174;51.588;7.328;2024-03-22T11:06:17;5.67;;;4.67;;
2326;SDS011;1174;51.588;7.328;2024-03-22T11:08:44;8.57;;;4.87;;
2326;SDS011;1174;51.588;7.328;2024-03-22T11:11:18;6.70;;;4.13;;
2326;SDS011;1174;51.588;7.328;2024-03-22T11:13:46;7.90;;;4.43;;
2326;SDS011;1174;51.588;7.328;2024-03-22T11:16:13;7.80;;;5.30;;
2326;SDS011;1174;51.588;7.328;2024-03-22T11:18:39;6.47;;;3.40;;
2326;SDS011;1174;51.588;7.328;2024-03-22T11:21:06;5.23;;;3.20;;
2326;SDS011;1174;51.588;7.328;2024-03-22T11:23:34;7.30;;;5.07;;
2326;SDS011;1174;51.588;7.328;2024-03-22T11:26:02;7.53;;;5.60;;
2326;SDS011;1174;51.588;7.328;2024-03-22T11:28:28;3.43;;;3.00;;
2326;SDS011;1174;51.588;7.328;2024-03-22T11:30:55;13.80;;;8.33;;
2326;SDS011;1174;51.588;7.328;2024-03-22T11:33:21;8.97;;;5.90;;
2326;SDS011;1174;51.588;7.328;2024-03-22T11:35:48;5.53;;;4.27;;
2326;SDS011;1174;51.588;7.328;2024-03-22T11:38:14;8.33;;;4.97;;
2326;SDS011;1174;51.588;7.328;2024-03-22T11:40:42;6.23;;;5.63;;
2326;SDS011;1174;51.588;7.328;2024-03-22T11:43:10;7.70;;;5.10;;
2326;SDS011;1174;51.588;7.328;2024-03-22T11:45:40;8.90;;;5.40;;
2326;SDS011;1174;51.588;7.328;2024-03-22T11:48:06;8.70;;;5.97;;
2326;SDS011;1174;51.588;7.328;2024-03-22T11:50:33;7.67;;;3.80;;
2326;SDS011;1174;51.588;7.328;2024-03-22T11:52:59;8.53;;;6.20;;
2326;SDS011;1174;51.588;7.328;2024-03-22T11:55:27;9.00;;;6.00;;
2326;SDS011;1174;51.588;7.328;2024-03-22T11:57:56;16.90;;;9.27;;
2326;SDS011;1174;51.588;7.328;2024-03-22T12:00:27;17.17;;;9.23;;
2326;SDS011;1174;51.588;7.328;2024-03-22T12:02:53;12.90;;;8.63;;
2326;SDS011;1174;51.588;7.328;2024-03-22T12:05:20;13.40;;;8.53;;
2326;SDS011;1174;51.588;7.328;2024-03-22T12:07:46;14.07;;;7.67;;
2326;SDS011;1174;51.588;7.328;2024-03-22T12:10:13;9.47;;;6.27;;
2326;SDS011;1174;51.588;7.328;2024-03-22T12:12:39;14.03;;;8.43;;
2326;SDS011;1174;51.588;7.328;2024-03-22T12:15:06;12.23;;;8.90;;
2326;SDS011;1174;51.588;7.328;2024-03-22T12:17:34;14.30;;;7.70;;
2326;SDS011;1174;51.588;7.328;2024-03-22T12:20:02;12.70;;;8.00;;
2326;SDS011;1174;51.588;7.328;2024-03-22T12:22:29;10.97;;;7.07;;
2326;SDS011;1174;51.588;7.328;2024-03-22T12:24:56;9.07;;;5.67;;
2326;SDS011;1174;51.588;7.328;2024-03-22T12:27:22;10.87;;;6.47;;
2326;SDS011;1174;51.588;7.328;2024-03-22T12:29:49;16.20;;;7.90;;
2326;SDS011;1174;51.588;7.328;2024-03-22T12:32:14;9.30;;;5.70;;
2326;SDS011;1174;51.588;7.328;2024-03-22T12:34:43;14.03;;;7.60;;
2326;SDS011;1174;51.588;7.328;2024-03-22T12:37:09;11.43;;;7.27;;
2326;SDS011;1174;51.588;7.328;2024-03-22T12:39:37;7.93;;;5.53;;
2326;SDS011;1174;51.588;7.328;2024-03-22T12:42:03;10.83;;;6.37;;
2326;SDS011;1174;51.588;7.328;2024-03-22T12:44:30;7.43;;;5.53;;
2326;SDS011;1174;51.588;7.328;2024-03-22T12:46:57;11.60;;;7.17;;
2326;SDS011;1174;51.588;7.328;2024-03-22T12:49:24;12.07;;;6.60;;
2326;SDS011;1174;51.588;7.328;2024-03-22T12:51:51;11.27;;;6.50;;
2326;SDS011;1174;51.588;7.328;2024-03-22T12:54:18;12.03;;;7.03;;
2326;SDS011;1174;51.588;7.328;2024-03-22T12:56:45;11.10;;;8.33;;
2326;SDS011;1174;51.588;7.328;2024-03-22T12:59:13;10.23;;;5.80;;
2326;SDS011;1174;51.588;7.328;2024-03-22T13:01:38;9.13;;;6.10;;
2326;SDS011;1174;51.588;7.328;2024-03-22T13:04:05;7.97;;;5.63;;
2326;SDS011;1174;51.588;7.328;2024-03-22T13:06:31;11.87;;;6.27;;
2326;SDS011;1174;51.588;7.328;2024-03-22T13:09:01;15.13;;;7.43;;
2326;SDS011;1174;51.588;7.328;2024-03-22T13:11:29;8.53;;;6.00;;
2326;SDS011;1174;51.588;7.328;2024-03-22T13:13:56;9.67;;;6.47;;
2326;SDS011;1174;51.588;7.328;2024-03-22T13:16:22;12.37;;;7.27;;
2326;SDS011;1174;51.588;7.328;2024-03-22T13:18:49;10.33;;;6.50;;
2326;SDS011;1174;51.588;7.328;2024-03-22T13:21:15;14.07;;;6.73;;
2326;SDS011;1174;51.588;7.328;2024-03-22T13:23:41;11.97;;;5.80;;
2326;SDS011;1174;51.588;7.328;2024-03-22T13:26:09;14.60;;;7.63;;
2326;SDS011;1174;51.588;7.328;2024-03-22T13:28:38;10.03;;;6.83;;
2326;SDS011;1174;51.588;7.328;2024-03-22T13:31:07;11.70;;;6.70;;
2326;SDS011;1174;51.588;7.328;2024-03-22T13:33:34;14.43;;;7.00;;
2326;SDS011;1174;51.588;7.328;2024-03-22T13:36:00;11.80;;;6.90;;
2326;SDS011;1174;51.588;7.328;2024-03-22T13:38:27;15.10;;;7.80;;
2326;SDS011;1174;51.588;7.328;2024-03-22T13:40:53;20.70;;;8.80;;
2326;SDS011;1174;51.588;7.328;2024-03-22T13:43:22;15.63;;;7.90;;
2326;SDS011;1174;51.588;7.328;2024-03-22T13:45:49;12.30;;;7.60;;
2326;SDS011;1174;51.588;7.328;2024-03-22T13:48:19;14.43;;;7.63;;
2326;SDS011;1174;51.588;7.328;2024-03-22T13:50:49;15.17;;;8.63;;
2326;SDS011;1174;51.588;7.328;2024-03-22T13:53:19;15.00;;;8.80;;
2326;SDS011;1174;51.588;7.328;2024-03-22T13:55:48;19.50;;;8.93;;
2326;SDS011;1174;51.588;7.328;2024-03-22T13:58:15;14.10;;;7.87;;
2326;SDS011;1174;51.588;7.328;2024-03-22T14:00:42;23.50;;;10.40;;
2326;SDS011;1174;51.588;7.328;2024-03-22T14:03:09;27.07;;;11.40;;
2326;SDS011;1174;51.588;7.328;2024-03-22T14:05:38;19.07;;;10.27;;
2326;SDS011;1174;51.588;7.328;2024-03-22T14:08:05;25.20;;;10.73;;
2326;SDS011;1174;51.588;7.328;2024-03-22T14:10:34;19.37;;;10.37;;
2326;SDS011;1174;51.588;7.328;2024-03-22T14:13:00;21.93;;;10.23;;
2326;SDS011;1174;51.588;7.328;2024-03-22T14:15:28;22.77;;;11.20;;
2326;SDS011;1174;51.588;7.328;2024-03-22T14:17:59;20.30;;;8.80;;
2326;SDS011;1174;51.588;7.328;2024-03-22T14:20:25;21.03;;;10.50;;
2326;SDS011;1174;51.588;7.328;2024-03-22T14:22:52;16.33;;;8.83;;
2326;SDS011;1174;51.588;7.328;2024-03-22T14:25:18;12.23;;;7.40;;
2326;SDS011;1174;51.588;7.328;2024-03-22T14:27:46;16.37;;;8.53;;
2326;SDS011;1174;51.588;7.328;2024-03-22T14:30:12;22.57;;;10.20;;
2326;SDS011;1174;51.588;7.328;2024-03-22T14:32:40;19.30;;;11.20;;
2326;SDS011;1174;51.588;7.328;2024-03-22T14:35:08;19.13;;;11.37;;
2326;SDS011;1174;51.588;7.328;2024-03-22T14:37:35;11.60;;;7.27;;
2326;SDS011;1174;51.588;7.328;2024-03-22T14:40:01;17.30;;;8.07;;
2326;SDS011;1174;51.588;7.328;2024-03-22T14:42:30;20.10;;;10.17;;
2326;SDS011;1174;51.588;7.328;2024-03-22T14:44:56;13.03;;;8.53;;
2326;SDS011;1174;51.588;7.328;2024-03-22T14:47:23;17.27;;;9.33;;
2326;SDS011;1174;51.588;7.328;2024-03-22T14:49:49;19.20;;;9.80;;
2326;SDS011;1174;51.588;7.328;2024-03-22T14:52:18;21.10;;;9.63;;
2326;SDS011;1174;51.588;7.328;2024-03-22T14:54:43;15.23;;;9.13;;
2326;SDS011;1174;51.588;7.328;2024-03-22T14:57:10;17.00;;;8.37;;
2326;SDS011;1174;51.588;7.328;2024-03-22T14:59:36;11.80;;;6.43;;
2326;SDS011;1174;51.588;7.328;2024-03-22T15:02:03;25.03;;;6.57;;
2326;SDS011;1174;51.588;7.328;2024-03-22T15:04:29;17.43;;;6.93;;
2326;SDS011;1174;51.588;7.328;2024-03-22T15:06:56;10.07;;;5.60;;
2326;SDS011;1174;51.588;7.328;2024-03-22T15:09:23;9.57;;;6.60;;
2326;SDS011;1174;51.588;7.328;2024-03-22T15:11:49;13.97;;;6.63;;
2326;SDS011;1174;51.588;7.328;2024-03-22T15:14:15;11.57;;;5.73;;
2326;SDS011;1174;51.588;7.328;2024-03-22T15:16:43;9.03;;;6.07;;
2326;SDS011;1174;51.588;7.328;2024-03-22T15:19:08;12.87;;;7.57;;
2326;SDS011;1174;51.588;7.328;2024-03-22T15:21:36;7.90;;;5.20;;
2326;SDS011;1174;51.588;7.328;2024-03-22T15:24:02;8.47;;;5.50;;
2326;SDS011;1174;51.588;7.328;2024-03-22T15:26:31;14.60;;;7.57;;
2326;SDS011;1174;51.588;7.328;2024-03-22T15:28:57;10.93;;;6.67;;
2326;SDS011;1174;51.588;7.328;2024-03-22T15:31:24;13.67;;;6.63;;
2326;SDS011;1174;51.588;7.328;2024-03-22T15:33:50;12.10;;;7.70;;
2326;SDS011;1174;51.588;7.328;2024-03-22T15:36:17;9.43;;;6.00;;
2326;SDS011;1174;51.588;7.328;2024-03-22T15:38:42;12.17;;;7.73;;
2326;SDS011;1174;51.588;7.328;2024-03-22T15:41:10;12.03;;;6.50;;
2326;SDS011;1174;51.588;7.328;2024-03-22T15:43:37;10.50;;;6.47;;
2326;SDS011;1174;51.588;7.328;2024-03-22T15:46:04;8.87;;;6.87;;
2326;SDS011;1174;51.588;7.328;2024-03-22T15:48:30;10.70;;;5.70;;
2326;SDS011;1174;51.588;7.328;2024-03-22T15:50:57;14.20;;;7.90;;
2326;SDS011;1174;51.588;7.328;2024-03-22T15:53:23;10.10;;;6.10;;
2326;SDS011;1174;51.588;7.328;2024-03-22T15:55:50;16.70;;;6.33;;
2326;SDS011;1174;51.588;7.328;2024-03-22T15:58:16;11.80;;;6.40;;
2326;SDS011;1174;51.588;7.328;2024-03-22T16:00:44;12.00;;;7.90;;
2326;SDS011;1174;51.588;7.328;2024-03-22T16:03:10;15.70;;;7.40;;
2326;SDS011;1174;51.588;7.328;2024-03-22T16:05:39;19.30;;;9.43;;
2326;SDS011;1174;51.588;7.328;2024-03-22T16:08:14;17.03;;;8.53;;
2326;SDS011;1174;51.588;7.328;2024-03-22T16:10:40;17.17;;;8.90;;
2326;SDS011;1174;51.588;7.328;2024-03-22T16:13:06;16.63;;;9.30;;
2326;SDS011;1174;51.588;7.328;2024-03-22T16:15:33;16.33;;;8.30;;
2326;SDS011;1174;51.588;7.328;2024-03-22T16:18:01;13.03;;;7.53;;
2326;SDS011;1174;51.588;7.328;2024-03-22T16:20:27;19.40;;;10.67;;
2326;SDS011;1174;51.588;7.328;2024-03-22T16:22:54;13.20;;;7.90;;
2326;SDS011;1174;51.588;7.328;2024-03-22T16:25:21;15.00;;;8.80;;
2326;SDS011;1174;51.588;7.328;2024-03-22T16:27:46;20.63;;;7.67;;
2326;SDS011;1174;51.588;7.328;2024-03-22T16:30:13;14.10;;;7.30;;
2326;SDS011;1174;51.588;7.328;2024-03-22T16:32:42;16.37;;;9.40;;
2326;SDS011;1174;51.588;7.328;2024-03-22T16:35:10;16.57;;;7.37;;
2326;SDS011;1174;51.588;7.328;2024-03-22T16:37:39;11.07;;;7.37;;
2326;SDS011;1174;51.588;7.328;2024-03-22T16:40:06;12.60;;;7.10;;
2326;SDS011;1174;51.588;7.328;2024-03-22T16:42:42;13.67;;;6.00;;
2326;SDS011;1174;51.588;7.328;2024-03-22T16:45:09;10.03;;;5.53;;
2326;SDS011;1174;51.588;7.328;2024-03-22T16:47:35;12.43;;;6.87;;
2326;SDS011;1174;51.588;7.328;2024-03-22T16:50:02;18.83;;;10.33;;
2326;SDS011;1174;51.588;7.328;2024-03-22T16:52:29;14.30;;;6.90;;
2326;SDS011;1174;51.588;7.328;2024-03-22T16:54:57;12.67;;;6.53;;
2326;SDS011;1174;51.588;7.328;2024-03-22T16:57:23;14.00;;;8.80;;
2326;SDS011;1174;51.588;7.328;2024-03-22T16:59:49;14.40;;;9.20;;
2326;SDS011;1174;51.588;7.328;2024-03-22T17:02:15;18.63;;;8.87;;
2326;SDS011;1174;51.588;7.328;2024-03-22T17:04:42;20.03;;;11.10;;
2326;SDS011;1174;51.588;7.328;2024-03-22T17:07:08;19.90;;;9.33;;
2326;SDS011;1174;51.588;7.328;2024-03-22T17:09:36;14.87;;;8.07;;
2326;SDS011;1174;51.588;7.328;2024-03-22T17:12:02;17.50;;;10.57;;
2326;SDS011;1174;51.588;7.328;2024-03-22T17:14:30;19.40;;;9.37;;
2326;SDS011;1174;51.588;7.328;2024-03-22T17:16:56;17.57;;;8.27;;
2326;SDS011;1174;51.588;7.328;2024-03-22T17:19:24;19.73;;;10.93;;
2326;SDS011;1174;51.588;7.328;2024-03-22T17:21:50;16.33;;;10.17;;
2326;SDS011;1174;51.588;7.328;2024-03-22T17:24:17;15.50;;;8.37;;
2326;SDS011;1174;51.588;7.328;2024-03-22T17:26:45;14.87;;;8.87;;
2326;SDS011;1174;51.588;7.328;2024-03-22T17:29:12;21.27;;;9.60;;
2326;SDS011;1174;51.588;7.328;2024-03-22T17:31:38;15.43;;;9.07;;
2326;SDS011;1174;51.588;7.328;2024-03-22T17:34:05;20.43;;;9.70;;
2326;SDS011;1174;51.588;7.328;2024-03-22T17:36:31;28.67;;;9.80;;
2326;SDS011;1174;51.588;7.328;2024-03-22T17:38:58;23.87;;;11.57;;
2326;SDS011;1174;51.588;7.328;2024-03-22T17:41:24;22.80;;;10.20;;
2326;SDS011;1174;51.588;7.328;2024-03-22T17:43:54;23.53;;;11.97;;
2326;SDS011;1174;51.588;7.328;2024-03-22T17:46:20;35.53;;;13.07;;
2326;SDS011;1174;51.588;7.328;2024-03-22T17:48:47;27.37;;;14.30;;
2326;SDS011;1174;51.588;7.328;2024-03-22T17:51:13;24.60;;;10.70;;
2326;SDS011;1174;51.588;7.328;2024-03-22T17:53:41;28.57;;;12.47;;
2326;SDS011;1174;51.588;7.328;2024-03-22T17:56:07;27.20;;;10.97;;
2326;SDS011;1174;51.588;7.328;2024-03-22T17:58:37;20.67;;;10.87;;
2326;SDS011;1174;51.588;7.328;2024-03-22T18:01:04;22.37;;;9.30;;
2326;SDS011;1174;51.588;7.328;2024-03-22T18:03:31;13.00;;;6.63;;
2326;SDS011;1174;51.588;7.328;2024-03-22T18:05:57;11.07;;;4.70;;
2326;SDS011;1174;51.588;7.328;2024-03-22T18:08:28;6.93;;;4.30;;
2326;SDS011;1174;51.588;7.328;2024-03-22T18:10:54;9.23;;;5.67;;
2326;SDS011;1174;51.588;7.328;2024-03-22T18:13:21;14.03;;;4.87;;
2326;SDS011;1174;51.588;7.328;2024-03-22T18:15:47;13.67;;;6.67;;
2326;SDS011;1174;51.588;7.328;2024-03-22T18:18:15;12.23;;;6.23;;
2326;SDS011;1174;51.588;7.328;2024-03-22T18:20:41;9.23;;;6.70;;
2326;SDS011;1174;51.588;7.328;2024-03-22T18:23:09;4.60;;;3.93;;
2326;SDS011;1174;51.588;7.328;2024-03-22T18:25:35;4.40;;;2.90;;
2326;SDS011;1174;51.588;7.328;2024-03-22T18:28:02;3.97;;;3.27;;
2326;SDS011;1174;51.588;7.328;2024-03-22T18:30:28;3.80;;;2.33;;
2326;SDS011;1174;51.588;7.328;2024-03-22T18:32:55;8.77;;;4.30;;
2326;SDS011;1174;51.588;7.328;2024-03-22T18:35:24;4.60;;;3.03;;
2326;SDS011;1174;51.588;7.328;2024-03-22T18:37:51;2.50;;;2.27;;
2326;SDS011;1174;51.588;7.328;2024-03-22T18:40:18;6.97;;;3.00;;
2326;SDS011;1174;51.588;7.328;2024-03-22T18:42:47;6.67;;;3.00;;
2326;SDS011;1174;51.588;7.328;2024-03-22T18:45:13;12.87;;;3.87;;
2326;SDS011;1174;51.588;7.328;2024-03-22T18:47:40;2.63;;;2.40;;
2326;SDS011;1174;51.588;7.328;2024-03-22T18:50:06;6.60;;;4.80;;
2326;SDS011;1174;51.588;7.328;2024-03-22T18:52:36;5.57;;;3.37;;
2326;SDS011;1174;51.588;7.328;2024-03-22T18:55:02;8.70;;;3.33;;
2326;SDS011;1174;51.588;7.328;2024-03-22T18:57:32;6.43;;;3.70;;
2326;SDS011;1174;51.588;7.328;2024-03-22T18:59:58;8.80;;;4.20;;
2326;SDS011;1174;51.588;7.328;2024-03-22T19:02:25;7.90;;;4.10;;
2326;SDS011;1174;51.588;7.328;2024-03-22T19:04:50;7.33;;;4.47;;